sensor_id;sensor_type;location;lat;lon;timestamp;pressure;altitude;pressure_sealevel;temperature;humidity
54918;BME280;40818;50.562;7.454;2023-05-10T00:09:48;97006.75;;;12.04;100.00
54918;BME280;40818;50.562;7.454;2023-05-10T00:19:54;97000.44;;;11.97;100.00
54918;BME280;40818;50.562;7.454;2023-05-10T00:29:58;97010.13;;;11.95;100.00
54918;BME280;40818;50.562;7.454;2023-05-10T00:40:05;97000.75;;;11.92;100.00
54918;BME280;40818;50.562;7.454;2023-05-10T00:50:09;96995.56;;;11.92;100.00
54918;BME280;40818;50.562;7.454;2023-05-10T01:00:16;96995.25;;;11.86;100.00
54918;BME280;40818;50.562;7.454;2023-05-10T01:10:20;97007.53;;;11.84;100.00
54918;BME280;40818;50.562;7.454;2023-05-10T01:20:30;97015.47;;;11.82;100.00
54918;BME280;40818;50.562;7.454;2023-05-10T01:31:03;97004.47;;;11.78;100.00
54918;BME280;40818;50.562;7.454;2023-05-10T01:41:18;97007.81;;;11.81;100.00
54918;BME280;40818;50.562;7.454;2023-05-10T02:02:33;97006.97;;;11.80;100.00
54918;BME280;40818;50.562;7.454;2023-05-10T02:12:42;97014.06;;;11.78;100.00
54918;BME280;40818;50.562;7.454;2023-05-10T02:22:50;97020.94;;;11.79;100.00
54918;BME280;40818;50.562;7.454;2023-05-10T02:32:55;97023.75;;;11.76;100.00
54918;BME280;40818;50.562;7.454;2023-05-10T02:43:02;97037.00;;;11.73;100.00
54918;BME280;40818;50.562;7.454;2023-05-10T02:53:10;97032.06;;;11.70;100.00
54918;BME280;40818;50.562;7.454;2023-05-10T03:03:19;97025.22;;;11.69;100.00
54918;BME280;40818;50.562;7.454;2023-05-10T03:13:29;97042.13;;;11.63;100.00
54918;BME280;40818;50.562;7.454;2023-05-10T03:23:41;97037.88;;;11.62;100.00
54918;BME280;40818;50.562;7.454;2023-05-10T03:33:46;97038.97;;;11.59;100.00
54918;BME280;40818;50.562;7.454;2023-05-10T03:43:58;97040.16;;;11.55;100.00
54918;BME280;40818;50.562;7.454;2023-05-10T03:54:03;97052.56;;;11.52;100.00
54918;BME280;40818;50.562;7.454;2023-05-10T04:04:10;97052.69;;;11.50;100.00
54918;BME280;40818;50.562;7.454;2023-05-10T04:14:13;97064.75;;;11.51;100.00
54918;BME280;40818;50.562;7.454;2023-05-10T04:24:19;97071.72;;;11.51;100.00
54918;BME280;40818;50.562;7.454;2023-05-10T04:34:22;97062.03;;;11.53;100.00
54918;BME280;40818;50.562;7.454;2023-05-10T04:44:28;97074.91;;;11.54;100.00
54918;BME280;40818;50.562;7.454;2023-05-10T04:54:32;97079.84;;;11.57;100.00
54918;BME280;40818;50.562;7.454;2023-05-10T05:04:38;97082.06;;;11.62;100.00
54918;BME280;40818;50.562;7.454;2023-05-10T05:14:41;97099.47;;;11.61;100.00
54918;BME280;40818;50.562;7.454;2023-05-10T05:24:47;97107.97;;;11.64;100.00
54918;BME280;40818;50.562;7.454;2023-05-10T05:34:51;97118.00;;;11.68;100.00
54918;BME280;40818;50.562;7.454;2023-05-10T05:44:57;97125.41;;;11.73;100.00
54918;BME280;40818;50.562;7.454;2023-05-10T05:55:00;97134.28;;;11.82;100.00
54918;BME280;40818;50.562;7.454;2023-05-10T06:05:07;97137.44;;;11.97;100.00
54918;BME280;40818;50.562;7.454;2023-05-10T06:15:11;97142.56;;;12.19;100.00
54918;BME280;40818;50.562;7.454;2023-05-10T06:25:17;97158.53;;;12.68;100.00
54918;BME280;40818;50.562;7.454;2023-05-10T06:35:21;97149.22;;;13.27;100.00
54918;BME280;40818;50.562;7.454;2023-05-10T06:45:27;97171.59;;;13.71;100.00
54918;BME280;40818;50.562;7.454;2023-05-10T06:55:30;97178.50;;;13.91;100.00
54918;BME280;40818;50.562;7.454;2023-05-10T07:05:36;97174.41;;;14.18;100.00
54918;BME280;40818;50.562;7.454;2023-05-10T07:15:39;97181.72;;;14.44;100.00
54918;BME280;40818;50.562;7.454;2023-05-10T07:25:47;97186.38;;;14.50;100.00
54918;BME280;40818;50.562;7.454;2023-05-10T07:35:53;97197.81;;;14.49;100.00
54918;BME280;40818;50.562;7.454;2023-05-10T07:45:58;97198.63;;;14.49;100.00
54918;BME280;40818;50.562;7.454;2023-05-10T07:56:20;97203.28;;;14.46;100.00
54918;BME280;40818;50.562;7.454;2023-05-10T08:06:27;97209.72;;;14.42;100.00
54918;BME280;40818;50.562;7.454;2023-05-10T08:16:31;97219.50;;;14.40;100.00
54918;BME280;40818;50.562;7.454;2023-05-10T08:26:38;97221.16;;;14.41;100.00
54918;BME280;40818;50.562;7.454;2023-05-10T08:36:43;97236.53;;;14.34;100.00
54918;BME280;40818;50.562;7.454;2023-05-10T08:46:53;97235.31;;;14.28;100.00
54918;BME280;40818;50.562;7.454;2023-05-10T08:56:58;97248.50;;;14.37;100.00
54918;BME280;40818;50.562;7.454;2023-05-10T09:07:04;97250.84;;;14.40;100.00
54918;BME280;40818;50.562;7.454;2023-05-10T09:17:07;97259.34;;;14.42;100.00
54918;BME280;40818;50.562;7.454;2023-05-10T09:27:13;97269.53;;;14.25;100.00
54918;BME280;40818;50.562;7.454;2023-05-10T09:37:17;97276.22;;;14.28;100.00
54918;BME280;40818;50.562;7.454;2023-05-10T09:47:25;97281.31;;;14.10;100.00
54918;BME280;40818;50.562;7.454;2023-05-10T09:57:28;97297.16;;;13.87;100.00
54918;BME280;40818;50.562;7.454;2023-05-10T10:07:34;97312.88;;;13.45;100.00
54918;BME280;40818;50.562;7.454;2023-05-10T10:17:38;97317.53;;;12.88;100.00
54918;BME280;40818;50.562;7.454;2023-05-10T10:27:53;97312.47;;;12.86;100.00
54918;BME280;40818;50.562;7.454;2023-05-10T10:38:00;97307.66;;;13.24;100.00
54918;BME280;40818;50.562;7.454;2023-05-10T10:48:24;97305.38;;;14.23;100.00
54918;BME280;40818;50.562;7.454;2023-05-10T10:58:31;97301.16;;;15.40;100.00
54918;BME280;40818;50.562;7.454;2023-05-10T11:08:42;97296.22;;;16.58;100.00
54918;BME280;40818;50.562;7.454;2023-05-10T11:18:53;97302.25;;;17.30;100.00
54918;BME280;40818;50.562;7.454;2023-05-10T11:28:59;97300.06;;;17.78;100.00
54918;BME280;40818;50.562;7.454;2023-05-10T11:39:05;97316.94;;;17.75;100.00
54918;BME280;40818;50.562;7.454;2023-05-10T11:49:14;97320.75;;;17.55;100.00
54918;BME280;40818;50.562;7.454;2023-05-10T11:59:18;97326.66;;;17.49;100.00
54918;BME280;40818;50.562;7.454;2023-05-10T12:09:24;97328.75;;;17.45;100.00
54918;BME280;40818;50.562;7.454;2023-05-10T12:19:37;97325.41;;;17.35;100.00
54918;BME280;40818;50.562;7.454;2023-05-10T12:40:44;97339.44;;;17.52;100.00
54918;BME280;40818;50.562;7.454;2023-05-10T12:50:49;97347.16;;;17.27;100.00
54918;BME280;40818;50.562;7.454;2023-05-10T13:01:07;97345.13;;;17.21;100.00
54918;BME280;40818;50.562;7.454;2023-05-10T13:11:10;97352.03;;;17.22;100.00
54918;BME280;40818;50.562;7.454;2023-05-10T13:21:19;97336.94;;;17.24;100.00
54918;BME280;40818;50.562;7.454;2023-05-10T13:31:24;97358.31;;;17.29;100.00
54918;BME280;40818;50.562;7.454;2023-05-10T13:52:43;97356.78;;;16.72;100.00
54918;BME280;40818;50.562;7.454;2023-05-10T14:02:46;97361.00;;;16.10;100.00
54918;BME280;40818;50.562;7.454;2023-05-10T14:12:52;97377.59;;;15.91;100.00
54918;BME280;40818;50.562;7.454;2023-05-10T14:22:55;97378.22;;;15.35;100.00
54918;BME280;40818;50.562;7.454;2023-05-10T14:33:02;97383.44;;;14.67;100.00
54918;BME280;40818;50.562;7.454;2023-05-10T14:43:05;97373.63;;;14.19;100.00
54918;BME280;40818;50.562;7.454;2023-05-10T14:53:11;97362.91;;;13.81;100.00
54918;BME280;40818;50.562;7.454;2023-05-10T15:03:15;97368.81;;;13.83;100.00
54918;BME280;40818;50.562;7.454;2023-05-10T15:13:21;97373.44;;;14.41;100.00
54918;BME280;40818;50.562;7.454;2023-05-10T15:23:24;97372.03;;;14.88;100.00
54918;BME280;40818;50.562;7.454;2023-05-10T15:33:31;97381.53;;;15.18;100.00
54918;BME280;40818;50.562;7.454;2023-05-10T15:43:35;97388.09;;;14.73;100.00
54918;BME280;40818;50.562;7.454;2023-05-10T15:53:41;97399.44;;;14.12;100.00
54918;BME280;40818;50.562;7.454;2023-05-10T16:03:44;97392.38;;;14.33;100.00
54918;BME280;40818;50.562;7.454;2023-05-10T16:13:50;97387.16;;;14.74;100.00
54918;BME280;40818;50.562;7.454;2023-05-10T16:23:53;97387.97;;;15.53;100.00
54918;BME280;40818;50.562;7.454;2023-05-10T16:33:59;97399.91;;;15.85;100.00
54918;BME280;40818;50.562;7.454;2023-05-10T16:44:03;97405.31;;;15.83;100.00
54918;BME280;40818;50.562;7.454;2023-05-10T16:54:26;97405.75;;;15.59;100.00
54918;BME280;40818;50.562;7.454;2023-05-10T17:04:32;97399.97;;;15.26;100.00
54918;BME280;40818;50.562;7.454;2023-05-10T17:14:38;97423.06;;;14.92;100.00
54918;BME280;40818;50.562;7.454;2023-05-10T17:24:43;97423.84;;;14.63;100.00
54918;BME280;40818;50.562;7.454;2023-05-10T17:34:49;97426.44;;;14.32;100.00
54918;BME280;40818;50.562;7.454;2023-05-10T17:44:53;97425.53;;;14.12;100.00
54918;BME280;40818;50.562;7.454;2023-05-10T17:55:02;97428.13;;;13.81;100.00
54918;BME280;40818;50.562;7.454;2023-05-10T18:05:10;97440.53;;;13.68;100.00
54918;BME280;40818;50.562;7.454;2023-05-10T18:15:25;97443.19;;;13.56;100.00
54918;BME280;40818;50.562;7.454;2023-05-10T18:25:32;97442.78;;;13.40;100.00
54918;BME280;40818;50.562;7.454;2023-05-10T18:46:43;97451.06;;;13.01;100.00
54918;BME280;40818;50.562;7.454;2023-05-10T18:56:47;97453.72;;;12.78;100.00
54918;BME280;40818;50.562;7.454;2023-05-10T19:06:56;97460.72;;;12.55;100.00
54918;BME280;40818;50.562;7.454;2023-05-10T19:17:01;97467.84;;;12.31;100.00
54918;BME280;40818;50.562;7.454;2023-05-10T19:27:08;97464.75;;;12.03;100.00
54918;BME280;40818;50.562;7.454;2023-05-10T19:37:11;97467.97;;;11.82;100.00
54918;BME280;40818;50.562;7.454;2023-05-10T19:47:17;97475.59;;;11.61;100.00
54918;BME280;40818;50.562;7.454;2023-05-10T19:57:21;97482.75;;;11.46;100.00
54918;BME280;40818;50.562;7.454;2023-05-10T20:07:27;97493.66;;;11.27;100.00
54918;BME280;40818;50.562;7.454;2023-05-10T20:17:30;97497.56;;;11.08;100.00
54918;BME280;40818;50.562;7.454;2023-05-10T20:27:36;97506.63;;;11.03;100.00
54918;BME280;40818;50.562;7.454;2023-05-10T20:38:01;97514.94;;;10.95;100.00
54918;BME280;40818;50.562;7.454;2023-05-10T20:48:09;97517.94;;;11.02;100.00
54918;BME280;40818;50.562;7.454;2023-05-10T20:58:30;97491.75;;;11.05;100.00
54918;BME280;40818;50.562;7.454;2023-05-10T21:08:44;97490.00;;;11.05;100.00
54918;BME280;40818;50.562;7.454;2023-05-10T21:18:48;97483.41;;;10.88;100.00
54918;BME280;40818;50.562;7.454;2023-05-10T21:28:54;97483.13;;;10.80;100.00
54918;BME280;40818;50.562;7.454;2023-05-10T21:38:59;97492.59;;;10.68;100.00
54918;BME280;40818;50.562;7.454;2023-05-10T21:49:05;97492.09;;;10.50;100.00
54918;BME280;40818;50.562;7.454;2023-05-10T21:59:08;97494.50;;;10.40;100.00
54918;BME280;40818;50.562;7.454;2023-05-10T22:09:15;97502.38;;;10.39;100.00
54918;BME280;40818;50.562;7.454;2023-05-10T22:19:18;97518.38;;;10.46;100.00
54918;BME280;40818;50.562;7.454;2023-05-10T22:29:24;97520.41;;;10.53;100.00
54918;BME280;40818;50.562;7.454;2023-05-10T22:39:27;97523.31;;;10.62;100.00
54918;BME280;40818;50.562;7.454;2023-05-10T22:49:33;97525.28;;;10.71;100.00
54918;BME280;40818;50.562;7.454;2023-05-10T22:59:37;97525.59;;;10.79;100.00
54918;BME280;40818;50.562;7.454;2023-05-10T23:09:44;97532.47;;;10.80;100.00
54918;BME280;40818;50.562;7.454;2023-05-10T23:19:48;97540.44;;;10.77;100.00
54918;BME280;40818;50.562;7.454;2023-05-10T23:29:54;97534.31;;;10.78;100.00
54918;BME280;40818;50.562;7.454;2023-05-10T23:39:57;97527.25;;;10.67;100.00
54918;BME280;40818;50.562;7.454;2023-05-10T23:50:05;97533.94;;;10.46;100.00
